Terminal Aerodrome Forecast
Issued by NWS

Home | Current Version | Previous Version | Text Only | Print | Product List | Glossary On
Versions: 1 2 3 4 5 6 7 8 9 10 11 12 13 14 15
000
FTUS46 KMTR 271731
TAFOAK
TAF
KOAK 271731Z 2718/2824 25006KT P6SM OVC019
     FM271900 26009KT P6SM SCT022
      TEMPO 2719/2720 BKN021
     FM272100 27012KT P6SM FEW020
     FM280400 30011KT P6SM SCT014
     FM280600 30006KT P6SM OVC012
     FM280900 VRB04KT P6SM OVC010
     FM281800 26008KT P6SM FEW014
     FM282100 29013KT P6SM SKC=

USA.gov is the U.S. government's official web portal to all federal, state and local government web resources and services.